createdAt,value
2019-04-28T00:24:01.655Z,100975.31
2019-04-28T00:26:35.662Z,100982.89
2019-04-28T00:29:11.103Z,100979.11
2019-04-28T00:31:44.050Z,100987.19
2019-04-28T00:34:18.590Z,100987.81
2019-04-28T00:36:52.467Z,100991.35
2019-04-28T00:39:25.405Z,100994.97
2019-04-28T00:41:58.353Z,101000.16
2019-04-28T00:44:31.927Z,101010.57
2019-04-28T00:47:05.631Z,101016.18
2019-04-28T00:49:41.787Z,101028.66
2019-04-28T00:52:14.619Z,101032.28
2019-04-28T00:54:52.339Z,101029.48
2019-04-28T00:57:24.861Z,101032.91
2019-04-28T00:59:59.044Z,101035.89
2019-04-28T01:02:33.251Z,101039.28
2019-04-28T01:05:07.027Z,101045.16
2019-04-28T01:07:41.622Z,101039.94
2019-04-28T01:10:15.640Z,101046.85
2019-04-28T01:12:50.978Z,101057.55
2019-04-28T01:15:25.372Z,101054.78
2019-04-28T01:17:58.234Z,101058.92
2019-04-28T01:20:30.415Z,101064.73
2019-04-28T01:23:03.078Z,101064.86
2019-04-28T01:25:35.587Z,101073.63
2019-04-28T01:28:15.909Z,101066.17
2019-04-28T01:30:50.099Z,101075.92
2019-04-28T01:33:25.501Z,101074.55
2019-04-28T01:36:00.581Z,101071.92
2019-04-28T01:38:33.493Z,101083.27
2019-04-28T01:41:07.262Z,101085.77
2019-04-28T01:43:41.743Z,101085.66
2019-04-28T01:46:16.181Z,101082.57
2019-04-28T01:48:49.816Z,101085.83
2019-04-28T01:51:22.305Z,101085.91
2019-04-28T01:53:54.819Z,101085.83
2019-04-28T01:56:27.819Z,101086.47
2019-04-28T01:59:00.358Z,101081.13
2019-04-28T02:01:37.283Z,101076.20
2019-04-28T02:04:10.164Z,101075.31
2019-04-28T02:06:42.280Z,101084.76
2019-04-28T02:09:16.542Z,101080.89
2019-04-28T02:11:50.368Z,101080.46
2019-04-28T02:14:22.912Z,101081.77
2019-04-28T02:16:56.549Z,101084.03
2019-04-28T02:19:32.921Z,101086.35
2019-04-28T02:22:05.906Z,101091.83
2019-04-28T02:24:40.512Z,101090.16
2019-04-28T02:27:13.454Z,101086.84
2019-04-28T02:29:46.128Z,101082.21
2019-04-28T02:32:23.755Z,101090.10
2019-04-28T02:34:53.879Z,101091.42
2019-04-28T02:37:26.640Z,101085.13
2019-04-28T02:40:03.410Z,101094.41
2019-04-28T02:42:36.862Z,101090.15
2019-04-28T02:45:11.706Z,101084.37
2019-04-28T02:47:45.990Z,101081.81
2019-04-28T02:50:21.233Z,101072.38
2019-04-28T02:53:02.079Z,101065.34
2019-04-28T02:55:35.414Z,101063.54
2019-04-28T02:58:11.351Z,101068.67
2019-04-28T03:01:00.983Z,101062.16
2019-04-28T03:03:21.176Z,101065.91
2019-04-28T03:05:53.781Z,101070.09
2019-04-28T03:08:27.325Z,101072.14
2019-04-28T03:11:04.994Z,101082.23
2019-04-28T03:13:41.227Z,101075.47
2019-04-28T03:16:17.452Z,101074.99
2019-04-28T03:18:51.454Z,101071.34
2019-04-28T03:21:23.982Z,101055.64
2019-04-28T03:23:56.781Z,101064.84
2019-04-28T03:26:32.016Z,101066.11
2019-04-28T03:29:05.846Z,101059.45
2019-04-28T03:32:03.754Z,101057.81
2019-04-28T03:34:14.253Z,101061.98
2019-04-28T03:36:46.375Z,101059.30
2019-04-28T03:39:20.566Z,101052.33
2019-04-28T03:41:54.610Z,101056.95
2019-04-28T03:44:30.924Z,101053.14
2019-04-28T03:47:05.576Z,101049.96
2019-04-28T03:49:42.742Z,101049.55
2019-04-28T03:52:13.893Z,101041.26
2019-04-28T03:54:52.155Z,101036.39
2019-04-28T03:57:24.408Z,101040.60
2019-04-28T03:59:56.360Z,101043.52
2019-04-28T04:02:31.190Z,101038.67
2019-04-28T04:05:04.805Z,101037.55
2019-04-28T04:07:37.426Z,101033.29
2019-04-28T04:10:13.498Z,101034.78
2019-04-28T04:12:45.753Z,101030.27
2019-04-28T04:15:21.742Z,101025.81
2019-04-28T04:17:57.743Z,101028.17
2019-04-28T04:20:33.276Z,101025.33
2019-04-28T04:23:07.014Z,101026.78
2019-04-28T04:25:41.582Z,101019.66
2019-04-28T04:28:14.658Z,101022.45
2019-04-28T04:30:47.457Z,101023.98
2019-04-28T04:33:21.478Z,101013.78
2019-04-28T04:35:54.231Z,101005.31
2019-04-28T04:38:27.397Z,101008.03
2019-04-28T04:41:01.561Z,100986.93
2019-04-28T04:43:34.660Z,100996.09
2019-04-28T04:46:10.708Z,100991.13
2019-04-28T04:48:44.970Z,100987.20
2019-04-28T04:51:17.936Z,100984.59
2019-04-28T04:53:51.438Z,100980.98
2019-04-28T04:56:24.918Z,100979.20
2019-04-28T04:59:02.176Z,100959.64
2019-04-28T05:01:32.889Z,100969.63
2019-04-28T05:04:09.579Z,100969.00
2019-04-28T05:06:42.643Z,100967.59
2019-04-28T05:09:15.986Z,100953.90
2019-04-28T05:11:50.023Z,100956.81
2019-04-28T05:14:24.238Z,100944.61
2019-04-28T05:16:57.046Z,100942.41
2019-04-28T05:19:29.865Z,100939.26
2019-04-28T05:22:02.858Z,100937.53
2019-04-28T05:24:36.876Z,100934.81
2019-04-28T05:27:10.897Z,100935.77
2019-04-28T05:29:44.747Z,100927.55
2019-04-28T05:32:20.429Z,100913.72
2019-04-28T05:34:53.924Z,100911.98
2019-04-28T05:37:27.663Z,100911.72
2019-04-28T05:40:00.897Z,100904.41
2019-04-28T05:42:36.527Z,100899.22
2019-04-28T05:45:10.401Z,100906.09
2019-04-28T05:47:44.558Z,100899.15
2019-04-28T05:50:25.851Z,100887.59
2019-04-28T05:53:06.628Z,100888.42
2019-04-28T05:55:45.341Z,100883.57
2019-04-28T05:58:21.108Z,100887.02
2019-04-28T06:00:55.155Z,100876.30
2019-04-28T06:03:30.227Z,100870.52
2019-04-28T06:06:03.194Z,100859.34
2019-04-28T06:08:38.544Z,100858.55
2019-04-28T06:11:12.047Z,100854.89
2019-04-28T06:13:45.549Z,100845.13
2019-04-28T06:16:19.589Z,100833.45
2019-04-28T06:18:52.400Z,100833.42
2019-04-28T06:21:24.820Z,100832.78
2019-04-28T06:23:58.335Z,100822.19
2019-04-28T06:26:31.868Z,100816.00
2019-04-28T06:29:04.598Z,100809.84
2019-04-28T06:37:45.365Z,100791.05
2019-04-28T06:40:17.772Z,100785.98
2019-04-28T06:42:50.449Z,100785.36
2019-04-28T06:45:23.789Z,100783.63
2019-04-28T06:47:56.919Z,100769.67
2019-04-28T06:50:29.309Z,100759.84
2019-04-28T06:53:03.021Z,100760.02
2019-04-28T06:55:35.633Z,100747.86
2019-04-28T06:58:09.503Z,100738.72
2019-04-28T07:00:42.676Z,100734.28
2019-04-28T07:03:23.066Z,100730.23
2019-04-28T07:05:49.391Z,100730.85
2019-04-28T07:08:27.104Z,100716.96
2019-04-28T07:10:59.526Z,100705.67
2019-04-28T07:13:34.512Z,100709.38
2019-04-28T07:16:06.519Z,100703.83
2019-04-28T07:18:39.607Z,100690.45
2019-04-28T07:21:13.895Z,100679.38
2019-04-28T07:23:48.714Z,100668.98
2019-04-28T07:26:22.250Z,100659.41
2019-04-28T07:28:54.085Z,100661.23
2019-04-28T07:31:26.483Z,100659.05
2019-04-28T07:33:58.139Z,100654.70
2019-04-28T07:36:30.052Z,100652.19
2019-04-28T07:39:03.484Z,100650.09
2019-04-28T07:41:38.017Z,100652.84
2019-04-28T07:44:13.337Z,100646.84
2019-04-28T07:46:46.337Z,100636.81
2019-04-28T07:49:18.521Z,100630.24
2019-04-28T07:51:52.401Z,100630.09
2019-04-28T07:54:28.468Z,100625.48
2019-04-28T07:57:02.020Z,100614.31
2019-04-28T07:59:41.043Z,100611.63
2019-04-28T08:02:13.874Z,100607.50
2019-04-28T08:04:46.719Z,100602.30
2019-04-28T08:07:19.632Z,100596.22
2019-04-28T08:09:52.053Z,100590.43
2019-04-28T08:12:25.115Z,100581.06
2019-04-28T08:14:58.712Z,100579.02
2019-04-28T08:17:32.356Z,100580.95
2019-04-28T08:20:07.218Z,100578.30
2019-04-28T08:22:42.388Z,100572.30
2019-04-28T08:25:16.050Z,100565.62
2019-04-28T08:27:49.820Z,100564.59
2019-04-28T08:30:25.529Z,100565.52
2019-04-28T08:32:59.312Z,100568.39
2019-04-28T08:35:33.236Z,100555.48
2019-04-28T08:38:05.644Z,100551.33
2019-04-28T08:40:39.896Z,100552.34
2019-04-28T08:43:12.894Z,100547.51
2019-04-28T08:45:45.979Z,100543.72
2019-04-28T08:48:18.829Z,100548.76
2019-04-28T08:50:51.259Z,100552.23
2019-04-28T08:53:24.522Z,100544.14
2019-04-28T08:55:57.572Z,100543.82
2019-04-28T08:58:45.249Z,100538.39
2019-04-28T09:01:20.853Z,100530.30
2019-04-28T09:03:54.068Z,100532.61
2019-04-28T09:06:26.424Z,100531.82
2019-04-28T09:08:58.094Z,100532.17
2019-04-28T09:11:30.394Z,100521.77
2019-04-28T09:14:03.039Z,100519.34
2019-04-28T09:16:35.672Z,100515.08
2019-04-28T09:19:10.454Z,100525.45
2019-04-28T09:21:46.066Z,100527.88
2019-04-28T09:24:20.341Z,100522.81
2019-04-28T09:26:53.463Z,100520.03
2019-04-28T09:29:33.125Z,100520.03
2019-04-28T09:32:05.897Z,100518.09
2019-04-28T09:34:38.283Z,100517.98
2019-04-28T09:37:11.189Z,100519.11
2019-04-28T09:39:44.848Z,100515.99
2019-04-28T09:42:26.063Z,100514.28
2019-04-28T09:45:01.248Z,100514.30
2019-04-28T09:47:33.344Z,100510.91
2019-04-28T09:50:06.608Z,100502.50
2019-04-28T09:52:39.749Z,100509.68
2019-04-28T09:55:14.848Z,100500.80
2019-04-28T09:57:47.823Z,100502.75
2019-04-28T10:00:21.832Z,100506.80
2019-04-28T10:02:55.564Z,100498.95
2019-04-28T10:05:30.368Z,100507.05
2019-04-28T10:08:03.591Z,100508.32
2019-04-28T10:10:36.335Z,100516.95
2019-04-28T10:13:08.841Z,100522.70
2019-04-28T10:15:42.774Z,100520.89
2019-04-28T10:18:17.856Z,100523.97
2019-04-28T10:20:54.561Z,100523.61
2019-04-28T10:23:26.693Z,100528.58
2019-04-28T10:25:58.701Z,100526.83
2019-04-28T10:28:30.971Z,100527.91
2019-04-28T10:31:05.865Z,100535.86
2019-04-28T10:33:39.631Z,100539.64
2019-04-28T10:36:16.285Z,100546.10
2019-04-28T10:38:51.385Z,100550.27
2019-04-28T10:41:27.228Z,100552.45
2019-04-28T10:44:01.570Z,100551.40
2019-04-28T10:46:34.531Z,100551.75
2019-04-28T10:49:07.917Z,100550.34
2019-04-28T10:51:40.833Z,100560.59
2019-04-28T10:54:13.521Z,100568.91
2019-04-28T10:56:46.759Z,100572.14
2019-04-28T10:59:19.225Z,100573.86
2019-04-28T11:01:52.205Z,100578.95
2019-04-28T11:07:16.688Z,100589.42
2019-04-28T11:09:52.121Z,100589.87
2019-04-28T11:12:25.976Z,100596.54
2019-04-28T11:14:59.746Z,100598.64
2019-04-28T11:17:32.479Z,100600.09
2019-04-28T11:20:05.573Z,100601.73
2019-04-28T11:22:38.389Z,100602.81
2019-04-28T11:25:12.337Z,100605.11
2019-04-28T11:27:46.080Z,100602.66
2019-04-28T11:30:29.798Z,100605.99
2019-04-28T11:33:04.222Z,100611.52
2019-04-28T11:35:39.847Z,100612.09
2019-04-28T11:38:14.382Z,100621.30
2019-04-28T11:40:47.020Z,100624.53
2019-04-28T11:43:19.951Z,100627.17
2019-04-28T11:45:53.346Z,100629.56
2019-04-28T11:48:25.868Z,100630.81
2019-04-28T11:50:58.235Z,100637.06
2019-04-28T11:53:31.188Z,100633.83
2019-04-28T11:56:04.352Z,100638.75
2019-04-28T11:58:37.114Z,100642.91
2019-04-28T12:01:14.594Z,100651.28
2019-04-28T12:03:48.134Z,100654.05
2019-04-28T12:06:20.706Z,100659.70
2019-04-28T12:08:55.580Z,100662.30
2019-04-28T12:11:30.188Z,100668.26
2019-04-28T12:14:04.305Z,100667.13
2019-04-28T12:16:42.371Z,100670.55
2019-04-28T12:19:16.492Z,100679.18
2019-04-28T12:21:49.226Z,100679.23
2019-04-28T12:24:22.689Z,100675.08
2019-04-28T12:26:55.128Z,100675.55
2019-04-28T12:29:28.388Z,100676.20
2019-04-28T12:32:08.783Z,100691.41
2019-04-28T12:34:41.931Z,100693.95
2019-04-28T12:37:14.286Z,100694.89
2019-04-28T12:39:48.035Z,100696.70
2019-04-28T12:42:23.461Z,100697.19
2019-04-28T12:44:57.279Z,100700.75
2019-04-28T12:47:30.145Z,100706.22
2019-04-28T12:50:04.213Z,100711.27
2019-04-28T12:52:36.574Z,100705.61
2019-04-28T12:55:09.177Z,100707.89
2019-04-28T12:57:42.591Z,100712.23
2019-04-28T13:00:18.160Z,100714.84
2019-04-28T13:02:53.219Z,100714.36
2019-04-28T13:05:28.957Z,100722.55
2019-04-28T13:08:01.151Z,100727.69
2019-04-28T13:10:34.639Z,100726.80
2019-04-28T13:13:14.852Z,100723.06
2019-04-28T13:15:48.506Z,100734.84
2019-04-28T13:18:21.108Z,100739.13
2019-04-28T13:20:53.301Z,100740.30
2019-04-28T13:23:26.761Z,100743.95
2019-04-28T13:25:59.970Z,100741.82
2019-04-28T13:28:34.401Z,100749.28
2019-04-28T13:31:07.566Z,100759.28
2019-04-28T13:33:55.739Z,100767.82
2019-04-28T13:36:21.247Z,100771.48
2019-04-28T13:38:53.595Z,100779.02
2019-04-28T13:41:25.456Z,100779.43
2019-04-28T13:43:58.380Z,100786.33
2019-04-28T13:46:30.639Z,100792.75
2019-04-28T13:49:05.165Z,100796.63
2019-04-28T13:51:41.546Z,100790.39
2019-04-28T13:54:20.857Z,100794.34
2019-04-28T13:56:54.037Z,100807.20
2019-04-28T13:59:26.765Z,100818.14
2019-04-28T14:02:01.277Z,100817.36
2019-04-28T14:04:34.995Z,100819.86
2019-04-28T14:07:06.961Z,100829.19
2019-04-28T14:09:39.977Z,100832.29
2019-04-28T14:12:16.410Z,100845.95
2019-04-28T14:14:52.250Z,100854.79
2019-04-28T14:32:38.806Z,100883.53
2019-04-28T14:35:11.128Z,100886.52
2019-04-28T14:37:43.616Z,100895.75
2019-04-28T14:40:18.411Z,100892.59
2019-04-28T14:42:51.029Z,100896.82
2019-04-28T14:45:24.063Z,100900.56
2019-04-28T14:47:58.804Z,100903.18
2019-04-28T14:50:31.705Z,100919.41
2019-04-28T14:53:08.510Z,100927.38
2019-04-28T14:55:42.867Z,100928.28
2019-04-28T14:58:16.566Z,100927.61
2019-04-28T15:00:50.663Z,100934.92
2019-04-28T15:03:25.266Z,100930.14
2019-04-28T15:05:57.666Z,100936.73
2019-04-28T15:08:37.901Z,100941.09
2019-04-28T15:11:13.304Z,100939.47
2019-04-28T15:13:47.701Z,100943.77
2019-04-28T15:16:20.576Z,100946.69
2019-04-28T15:18:55.023Z,100951.42
2019-04-28T15:21:27.283Z,100949.15
2019-04-28T15:23:59.711Z,100951.48
2019-04-28T15:26:32.039Z,100965.13
2019-04-28T15:29:04.720Z,100962.22
2019-04-28T15:31:37.320Z,100965.31
2019-04-28T15:34:09.706Z,100964.00
2019-04-28T15:37:25.134Z,100971.88
2019-04-28T15:43:28.144Z,100982.82
2019-04-28T15:46:02.013Z,100983.31
2019-04-28T15:48:40.339Z,100979.01
2019-04-28T15:51:15.928Z,100982.17
2019-04-28T15:53:49.939Z,100986.91
2019-04-28T15:56:25.654Z,100988.98
2019-04-28T15:58:57.774Z,100988.26
2019-04-28T16:01:31.532Z,100987.53
2019-04-28T16:04:07.585Z,100983.56
2019-04-28T16:06:40.929Z,100982.58
2019-04-28T16:09:20.972Z,100981.83
2019-04-28T16:11:55.408Z,100981.03
2019-04-28T16:14:36.163Z,100975.29
2019-04-28T16:20:06.606Z,100980.15
2019-04-28T16:22:47.447Z,100978.70
2019-04-28T16:25:21.059Z,100977.66
2019-04-28T16:27:56.285Z,100987.60
2019-04-28T16:30:29.383Z,100989.31
2019-04-28T16:33:02.441Z,100980.38
2019-04-28T16:35:36.621Z,100975.73
2019-04-28T16:38:20.898Z,100971.28
2019-04-28T16:40:55.511Z,100966.41
2019-04-28T16:43:29.386Z,100966.88
2019-04-28T16:46:03.604Z,100960.56
2019-04-28T16:48:36.579Z,100960.69
2019-04-28T16:51:14.687Z,100958.30
2019-04-28T16:53:48.167Z,100954.23
2019-04-28T16:56:23.686Z,100945.40
2019-04-28T16:58:59.939Z,100944.14
2019-04-28T17:01:34.809Z,100938.80
2019-04-28T17:04:08.244Z,100941.16
2019-04-28T17:06:42.636Z,100936.85
2019-04-28T17:09:16.447Z,100939.52
2019-04-28T17:11:53.050Z,100937.80
2019-04-28T17:14:26.333Z,100934.72
2019-04-28T17:17:01.284Z,100929.59
2019-04-28T17:19:34.398Z,100923.84
2019-04-28T17:22:08.465Z,100923.02
2019-04-28T17:24:42.405Z,100926.66
2019-04-28T17:27:16.555Z,100923.18
2019-04-28T17:29:51.269Z,100925.12
2019-04-28T17:32:24.510Z,100915.73
2019-04-28T17:34:58.443Z,100909.59
2019-04-28T17:37:31.515Z,100909.89
2019-04-28T17:40:04.917Z,100899.05
2019-04-28T17:42:39.425Z,100908.02
2019-04-28T17:45:13.709Z,100904.77
2019-04-28T17:47:54.148Z,100895.12
2019-04-28T17:50:28.800Z,100893.22
2019-04-28T17:53:01.680Z,100891.02
2019-04-28T17:55:36.323Z,100887.47
2019-04-28T17:58:09.951Z,100891.80
2019-04-28T18:00:43.955Z,100888.97
2019-04-28T18:03:18.392Z,100888.09
2019-04-28T18:05:52.332Z,100888.09
2019-04-28T18:08:25.609Z,100881.13
2019-04-28T18:10:58.346Z,100873.06
2019-04-28T18:13:30.967Z,100871.32
2019-04-28T18:16:07.541Z,100867.80
2019-04-28T18:18:41.638Z,100873.42
2019-04-28T18:21:18.173Z,100865.05
2019-04-28T18:24:00.313Z,100858.91
2019-04-28T18:26:33.719Z,100855.80
2019-04-28T18:29:10.896Z,100854.91
2019-04-28T18:31:45.553Z,100850.87
2019-04-28T18:34:20.079Z,100847.95
2019-04-28T18:36:54.002Z,100852.80
2019-04-28T18:39:28.385Z,100849.55
2019-04-28T18:42:03.101Z,100847.30
2019-04-28T18:44:36.967Z,100841.29
2019-04-28T18:47:09.917Z,100846.19
2019-04-28T18:49:49.975Z,100844.61
2019-04-28T18:52:28.581Z,100840.34
2019-04-28T18:55:01.267Z,100839.84
2019-04-28T18:57:34.283Z,100837.09
2019-04-28T19:00:08.713Z,100830.09
2019-04-28T19:02:43.511Z,100829.15
2019-04-28T19:05:17.018Z,100828.42
2019-04-28T19:07:57.786Z,100826.03
2019-04-28T19:10:36.560Z,100819.23
2019-04-28T19:13:17.727Z,100814.48
2019-04-28T19:15:51.792Z,100809.41
2019-04-28T19:18:26.907Z,100808.08
2019-04-28T19:21:00.779Z,100806.05
2019-04-28T19:23:33.619Z,100806.77
2019-04-28T19:26:15.952Z,100801.16
2019-04-28T19:28:52.285Z,100801.14
2019-04-28T19:31:26.635Z,100801.55
2019-04-28T19:33:59.836Z,100799.48
2019-04-28T19:36:33.196Z,100800.77
2019-04-28T19:39:09.862Z,100795.09
2019-04-28T19:41:45.198Z,100796.50
2019-04-28T19:44:18.205Z,100798.34
2019-04-28T19:46:50.596Z,100790.84
2019-04-28T19:49:29.827Z,100790.89
2019-04-28T19:52:07.948Z,100789.89
2019-04-28T19:54:50.235Z,100791.42
2019-04-28T19:57:24.190Z,100786.84
2019-04-28T19:59:58.201Z,100781.69
2019-04-28T20:02:40.974Z,100784.64
2019-04-28T20:05:14.080Z,100779.41
2019-04-28T20:07:49.893Z,100781.12
2019-04-28T20:10:29.887Z,100779.50
2019-04-28T20:13:02.856Z,100770.16
2019-04-28T20:15:34.921Z,100766.75
2019-04-28T20:18:08.320Z,100769.19
2019-04-28T20:20:41.366Z,100768.86
2019-04-28T20:23:20.668Z,100774.29
2019-04-28T20:25:54.513Z,100764.97
2019-04-28T20:28:33.685Z,100771.69
2019-04-28T20:31:05.994Z,100768.73
2019-04-28T20:33:46.645Z,100772.55
2019-04-28T20:36:20.137Z,100769.67
2019-04-28T20:38:53.836Z,100773.30
2019-04-28T20:41:29.595Z,100778.17
2019-04-28T20:44:06.790Z,100768.86
2019-04-28T20:46:46.883Z,100768.87
2019-04-28T20:49:19.642Z,100767.23
2019-04-28T20:51:52.621Z,100768.13
2019-04-28T20:54:25.272Z,100766.95
2019-04-28T20:57:03.959Z,100764.84
2019-04-28T20:59:39.115Z,100763.50
2019-04-28T21:02:13.012Z,100764.16
2019-04-28T21:04:46.546Z,100761.00
2019-04-28T21:07:20.078Z,100757.83
2019-04-28T21:09:52.811Z,100755.70
2019-04-28T21:12:30.210Z,100753.70
2019-04-28T21:15:03.216Z,100751.23
2019-04-28T21:17:39.385Z,100753.13
2019-04-28T21:20:13.682Z,100752.03
2019-04-28T21:22:53.252Z,100752.13
2019-04-28T21:25:25.889Z,100749.92
2019-04-28T21:28:06.984Z,100759.34
2019-04-28T21:30:42.552Z,100757.90
2019-04-28T21:33:16.717Z,100766.08
2019-04-28T21:35:49.216Z,100764.66
2019-04-28T21:38:23.131Z,100766.54
2019-04-28T21:40:56.824Z,100772.48
2019-04-28T21:43:38.649Z,100775.05
2019-04-28T21:46:12.774Z,100775.47
2019-04-28T21:48:53.797Z,100772.38
2019-04-28T21:51:38.102Z,100777.56
2019-04-28T21:54:11.036Z,100773.86
2019-04-28T21:56:44.054Z,100780.48
2019-04-28T21:59:18.081Z,100779.27
2019-04-28T22:01:50.702Z,100785.84
2019-04-28T22:04:24.028Z,100788.16
2019-04-28T22:06:56.858Z,100789.48
2019-04-28T22:09:36.910Z,100794.11
2019-04-28T22:12:11.242Z,100791.91
2019-04-28T22:14:43.726Z,100792.14
2019-04-28T22:17:22.721Z,100799.61
2019-04-28T22:19:55.479Z,100793.12
2019-04-28T22:22:28.206Z,100799.53
2019-04-28T22:25:01.987Z,100802.55
2019-04-28T22:27:37.740Z,100805.97
2019-04-28T22:30:11.985Z,100809.27
2019-04-28T22:32:44.224Z,100809.27
